createdAt,value
2017-12-06T00:00:01.000Z,1020.63
2017-12-06T00:01:02.436Z,1020.67
2017-12-06T00:02:03.851Z,1020.69
2017-12-06T00:03:05.261Z,1020.63
2017-12-06T00:04:06.696Z,1020.67
2017-12-06T00:05:08.106Z,1020.67
2017-12-06T00:06:09.514Z,1020.65
2017-12-06T00:07:10.928Z,1020.64
2017-12-06T00:08:12.342Z,1020.58
2017-12-06T00:09:13.746Z,1020.50
2017-12-06T00:10:15.158Z,1020.63
2017-12-06T00:11:16.573Z,1020.57
2017-12-06T00:12:17.990Z,1020.58
2017-12-06T00:13:19.358Z,1020.52
2017-12-06T00:14:20.771Z,1020.50
2017-12-06T00:15:22.184Z,1020.52
2017-12-06T00:16:23.591Z,1020.48
2017-12-06T00:17:25.006Z,1020.49
2017-12-06T00:18:26.412Z,1020.50
2017-12-06T00:19:27.840Z,1020.52
2017-12-06T00:20:29.258Z,1020.51
2017-12-06T00:21:30.668Z,1020.51
2017-12-06T00:22:32.091Z,1020.47
2017-12-06T00:23:33.504Z,1020.53
2017-12-06T00:24:34.916Z,1020.55
2017-12-06T00:25:36.336Z,1020.52
2017-12-06T00:26:37.740Z,1020.50
2017-12-06T00:27:39.147Z,1020.53
2017-12-06T00:28:40.559Z,1020.54
2017-12-06T00:29:41.977Z,1020.51
2017-12-06T00:30:43.385Z,1020.53
2017-12-06T00:31:44.929Z,1020.54
2017-12-06T00:32:46.376Z,1020.52
2017-12-06T00:33:47.737Z,1020.54
2017-12-06T00:34:49.153Z,1020.57
2017-12-06T00:35:50.578Z,1020.53
2017-12-06T00:36:51.990Z,1020.52
2017-12-06T00:37:53.401Z,1020.50
2017-12-06T00:38:54.849Z,1020.48
2017-12-06T00:39:56.268Z,1020.46
2017-12-06T00:40:57.675Z,1020.45
2017-12-06T00:41:59.089Z,1020.49
2017-12-06T00:43:00.493Z,1020.49
2017-12-06T00:44:01.917Z,1020.52
2017-12-06T00:45:03.320Z,1020.51
2017-12-06T00:46:04.859Z,1020.49
2017-12-06T00:47:06.266Z,1020.52
2017-12-06T00:48:07.682Z,1020.48
2017-12-06T00:49:09.089Z,1020.54
2017-12-06T00:50:10.511Z,1020.47
2017-12-06T00:51:11.916Z,1020.47
2017-12-06T00:52:13.339Z,1020.43
2017-12-06T00:53:14.748Z,1020.43
2017-12-06T00:54:16.161Z,1020.44
2017-12-06T00:55:17.578Z,1020.45
2017-12-06T00:56:18.986Z,1020.45
2017-12-06T00:57:20.399Z,1020.44
2017-12-06T00:58:21.818Z,1020.46
2017-12-06T00:59:23.206Z,1020.47
2017-12-06T01:00:24.614Z,1020.43
2017-12-06T01:01:26.029Z,1020.45
2017-12-06T01:02:27.440Z,1020.44
2017-12-06T01:03:28.860Z,1020.37
2017-12-06T01:04:30.270Z,1020.38
2017-12-06T01:05:31.696Z,1020.32
2017-12-06T01:06:33.206Z,1020.33
2017-12-06T01:07:34.621Z,1020.36
2017-12-06T01:08:36.039Z,1020.34
2017-12-06T01:09:37.455Z,1020.38
2017-12-06T01:10:38.912Z,1020.33
2017-12-06T01:11:40.276Z,1020.33
2017-12-06T01:12:41.691Z,1020.41
2017-12-06T01:13:43.203Z,1020.37
2017-12-06T01:14:44.617Z,1020.40
2017-12-06T01:15:46.021Z,1020.44
2017-12-06T01:16:47.445Z,1020.41
2017-12-06T01:17:48.849Z,1020.42
2017-12-06T01:18:50.264Z,1020.51
2017-12-06T01:19:51.671Z,1020.48
2017-12-06T01:20:53.085Z,1020.41
2017-12-06T01:21:54.505Z,1020.46
2017-12-06T01:22:55.923Z,1020.48
2017-12-06T01:23:57.339Z,1020.47
2017-12-06T01:24:58.754Z,1020.48
2017-12-06T01:26:00.184Z,1020.46
2017-12-06T01:27:01.586Z,1020.47
2017-12-06T01:28:02.996Z,1020.45
2017-12-06T01:29:04.446Z,1020.52
2017-12-06T01:30:05.864Z,1020.50
2017-12-06T01:31:07.291Z,1020.44
2017-12-06T01:32:08.708Z,1020.46
2017-12-06T01:33:10.120Z,1020.39
2017-12-06T01:34:11.529Z,1020.44
2017-12-06T01:35:12.938Z,1020.40
2017-12-06T01:36:14.376Z,1020.43
2017-12-06T01:37:15.936Z,1020.45
2017-12-06T01:38:17.352Z,1020.43
2017-12-06T01:39:18.756Z,1020.53
2017-12-06T01:40:20.185Z,1020.53
2017-12-06T01:41:21.598Z,1020.51
2017-12-06T01:42:23.012Z,1020.53
2017-12-06T01:43:24.421Z,1020.54
2017-12-06T01:44:25.834Z,1020.48
2017-12-06T01:45:27.251Z,1020.46
2017-12-06T01:46:28.661Z,1020.50
2017-12-06T01:47:30.073Z,1020.48
2017-12-06T01:48:31.499Z,1020.45
2017-12-06T01:49:32.916Z,1020.46
2017-12-06T01:50:34.330Z,1020.51
2017-12-06T01:51:35.755Z,1020.52
2017-12-06T01:52:37.171Z,1020.46
2017-12-06T01:53:38.584Z,1020.45
2017-12-06T01:54:39.991Z,1020.43
2017-12-06T01:55:41.408Z,1020.40
2017-12-06T01:56:42.821Z,1020.44
2017-12-06T01:57:44.236Z,1020.41
2017-12-06T01:58:45.647Z,1020.43
2017-12-06T01:59:47.056Z,1020.35
2017-12-06T02:00:48.470Z,1020.34
2017-12-06T02:01:49.891Z,1020.34
2017-12-06T02:02:51.296Z,1020.36
2017-12-06T02:03:52.707Z,1020.36
2017-12-06T02:04:54.123Z,1020.33
2017-12-06T02:05:55.536Z,1020.34
2017-12-06T02:06:56.954Z,1020.35
2017-12-06T02:07:58.417Z,1020.34
2017-12-06T02:08:59.774Z,1020.43
2017-12-06T02:10:01.187Z,1020.40
2017-12-06T02:11:02.592Z,1020.43
2017-12-06T02:12:04.058Z,1020.36
2017-12-06T02:13:05.471Z,1020.35
2017-12-06T02:14:06.879Z,1020.43
2017-12-06T02:15:08.293Z,1020.44
2017-12-06T02:16:09.704Z,1020.42
2017-12-06T02:17:11.108Z,1020.42
2017-12-06T02:18:12.518Z,1020.34
2017-12-06T02:19:13.940Z,1020.36
2017-12-06T02:20:15.348Z,1020.32
2017-12-06T02:21:16.763Z,1020.31
2017-12-06T02:22:18.175Z,1020.33
2017-12-06T02:23:19.595Z,1020.31
2017-12-06T02:24:21.003Z,1020.29
2017-12-06T02:25:22.416Z,1020.31
2017-12-06T02:26:23.830Z,1020.34
2017-12-06T02:27:25.249Z,1020.29
2017-12-06T02:28:26.661Z,1020.30
2017-12-06T02:29:28.074Z,1020.30
2017-12-06T02:30:29.480Z,1020.30
2017-12-06T02:31:30.895Z,1020.31
2017-12-06T02:32:32.313Z,1020.29
2017-12-06T02:33:33.724Z,1020.29
2017-12-06T02:34:35.144Z,1020.29
2017-12-06T02:35:36.560Z,1020.23
2017-12-06T02:36:37.979Z,1020.28
2017-12-06T02:37:39.387Z,1020.21
2017-12-06T02:38:40.800Z,1020.19
2017-12-06T02:39:42.214Z,1020.22
2017-12-06T02:40:43.624Z,1020.15
2017-12-06T02:41:45.053Z,1020.24
2017-12-06T02:42:46.465Z,1020.15
2017-12-06T02:43:47.880Z,1020.20
2017-12-06T02:44:49.293Z,1020.16
2017-12-06T02:45:50.709Z,1020.23
2017-12-06T02:46:52.122Z,1020.13
2017-12-06T02:47:53.538Z,1020.14
2017-12-06T02:48:54.953Z,1020.09
2017-12-06T02:49:56.364Z,1020.11
2017-12-06T02:50:57.772Z,1020.11
2017-12-06T02:51:59.187Z,1020.11
2017-12-06T02:53:00.600Z,1020.13
2017-12-06T02:54:02.024Z,1020.07
2017-12-06T02:55:03.429Z,1020.12
2017-12-06T02:56:04.837Z,1020.10
2017-12-06T02:57:06.250Z,1020.12
2017-12-06T02:58:07.668Z,1020.13
2017-12-06T02:59:09.080Z,1020.14
2017-12-06T03:00:10.484Z,1020.12
2017-12-06T03:01:11.894Z,1020.05
2017-12-06T03:02:13.300Z,1020.04
2017-12-06T03:03:14.712Z,1020.03
2017-12-06T03:04:16.135Z,1020.07
2017-12-06T03:05:17.545Z,1020.05
2017-12-06T03:06:18.952Z,1020.06
2017-12-06T03:07:20.371Z,1020.05
2017-12-06T03:08:21.932Z,1020.07
2017-12-06T03:09:23.348Z,1020.02
2017-12-06T03:10:24.763Z,1020.02
2017-12-06T03:11:26.169Z,1020.04
2017-12-06T03:12:27.590Z,1020.05
2017-12-06T03:13:28.999Z,1020.05
2017-12-06T03:14:30.424Z,1020.10
2017-12-06T03:15:31.831Z,1020.05
2017-12-06T03:16:33.243Z,1020.14
2017-12-06T03:17:34.644Z,1020.05
2017-12-06T03:18:36.056Z,1020.12
2017-12-06T03:19:37.471Z,1020.04
2017-12-06T03:20:38.884Z,1020.08
2017-12-06T03:21:40.296Z,1020.01
2017-12-06T03:22:41.723Z,1020.03
2017-12-06T03:23:43.136Z,1020.03
2017-12-06T03:24:44.544Z,1020.03
2017-12-06T03:25:45.957Z,1019.96
2017-12-06T03:26:47.371Z,1019.95
2017-12-06T03:27:48.788Z,1020.00
2017-12-06T03:28:50.236Z,1019.94
2017-12-06T03:29:51.638Z,1019.95
2017-12-06T03:30:53.050Z,1019.83
2017-12-06T03:31:54.480Z,1019.85
2017-12-06T03:32:55.888Z,1019.81
2017-12-06T03:33:57.299Z,1019.91
2017-12-06T03:34:58.710Z,1019.87
2017-12-06T03:36:00.116Z,1019.82
2017-12-06T03:37:01.526Z,1019.78
2017-12-06T03:38:02.937Z,1019.85
2017-12-06T03:39:04.362Z,1019.87
2017-12-06T03:40:05.768Z,1019.84
2017-12-06T03:41:07.175Z,1019.83
2017-12-06T03:42:08.586Z,1019.82
2017-12-06T03:43:10.000Z,1019.75
2017-12-06T03:44:11.415Z,1019.72
2017-12-06T03:45:12.822Z,1019.74
2017-12-06T03:46:14.232Z,1019.68
2017-12-06T03:47:15.646Z,1019.67
2017-12-06T03:48:17.065Z,1019.63
2017-12-06T03:49:18.480Z,1019.66
2017-12-06T03:50:19.893Z,1019.63
2017-12-06T03:51:21.340Z,1019.66
2017-12-06T03:52:22.725Z,1019.66
2017-12-06T03:53:24.133Z,1019.65
2017-12-06T03:54:25.542Z,1019.67
2017-12-06T03:55:26.959Z,1019.65
2017-12-06T03:56:28.383Z,1019.72
2017-12-06T03:57:29.793Z,1019.69
2017-12-06T03:58:31.201Z,1019.68
2017-12-06T03:59:32.617Z,1019.63
2017-12-06T04:00:34.024Z,1019.61
2017-12-06T04:01:35.441Z,1019.61
2017-12-06T04:02:36.855Z,1019.59
2017-12-06T04:03:38.266Z,1019.59
2017-12-06T04:04:39.672Z,1019.62
2017-12-06T04:05:41.091Z,1019.62
2017-12-06T04:06:42.503Z,1019.49
2017-12-06T04:07:43.922Z,1019.58
2017-12-06T04:08:45.351Z,1019.53
2017-12-06T04:09:46.767Z,1019.55
2017-12-06T04:10:48.169Z,1019.57
2017-12-06T04:11:49.580Z,1019.55
2017-12-06T04:12:50.990Z,1019.57
2017-12-06T04:13:52.400Z,1019.53
2017-12-06T04:14:53.813Z,1019.50
2017-12-06T04:15:55.224Z,1019.54
2017-12-06T04:16:56.645Z,1019.52
2017-12-06T04:17:58.054Z,1019.52
2017-12-06T04:18:59.470Z,1019.52
2017-12-06T04:20:00.881Z,1019.54
2017-12-06T04:21:02.293Z,1019.59
2017-12-06T04:22:03.694Z,1019.62
2017-12-06T04:23:05.106Z,1019.57
2017-12-06T04:24:06.523Z,1019.55
2017-12-06T04:25:07.937Z,1019.58
2017-12-06T04:26:09.364Z,1019.50
2017-12-06T04:27:10.758Z,1019.47
2017-12-06T04:28:12.169Z,1019.50
2017-12-06T04:29:13.588Z,1019.46
2017-12-06T04:30:14.963Z,1019.15
2017-12-06T04:31:16.377Z,1018.72
2017-12-06T04:32:17.797Z,1018.88
2017-12-06T04:33:19.201Z,1019.33
2017-12-06T04:34:20.616Z,1019.31
2017-12-06T04:35:22.029Z,1019.37
2017-12-06T04:36:23.450Z,1019.44
2017-12-06T04:37:24.855Z,1019.50
2017-12-06T04:38:26.272Z,1019.40
2017-12-06T04:39:27.677Z,1019.43
2017-12-06T04:40:29.090Z,1019.39
2017-12-06T04:41:30.504Z,1019.46
2017-12-06T04:42:31.932Z,1019.43
2017-12-06T04:43:33.340Z,1019.42
2017-12-06T04:44:34.765Z,1019.40
2017-12-06T04:45:36.179Z,1019.42
2017-12-06T04:46:37.596Z,1019.42
2017-12-06T04:47:39.000Z,1019.35
2017-12-06T04:48:40.413Z,1019.35
2017-12-06T04:49:41.814Z,1018.36
2017-12-06T04:50:43.216Z,1017.04
2017-12-06T04:51:44.627Z,1017.06
2017-12-06T04:52:46.040Z,1017.28
2017-12-06T04:53:47.459Z,1017.69
2017-12-06T04:54:48.882Z,1019.07
2017-12-06T04:55:50.297Z,1019.26
2017-12-06T04:56:51.711Z,1019.39
2017-12-06T04:57:53.122Z,1019.32
2017-12-06T04:58:54.529Z,1019.24
2017-12-06T04:59:55.946Z,1019.17
2017-12-06T05:00:57.351Z,1019.17
2017-12-06T05:01:58.764Z,1019.17
2017-12-06T05:03:00.177Z,1019.19
2017-12-06T05:04:01.599Z,1019.16
2017-12-06T05:05:03.017Z,1019.16
2017-12-06T05:06:04.423Z,1019.15
2017-12-06T05:07:05.828Z,1019.07
2017-12-06T05:08:07.275Z,1019.07
2017-12-06T05:09:08.689Z,1019.05
2017-12-06T05:10:10.105Z,1018.99
2017-12-06T05:11:11.506Z,1019.01
2017-12-06T05:12:12.926Z,1018.96
2017-12-06T05:13:14.332Z,1018.94
2017-12-06T05:14:15.742Z,1018.97
2017-12-06T05:15:17.163Z,1018.92
2017-12-06T05:16:18.570Z,1018.94
2017-12-06T05:17:19.985Z,1018.90
2017-12-06T05:18:21.390Z,1018.88
2017-12-06T05:19:22.802Z,1018.91
2017-12-06T05:20:24.214Z,1018.85
2017-12-06T05:21:25.630Z,1018.85
2017-12-06T05:22:27.050Z,1018.78
2017-12-06T05:23:28.511Z,1018.75
2017-12-06T05:24:29.916Z,1018.75
2017-12-06T05:25:31.327Z,1018.72
2017-12-06T05:26:32.744Z,1018.77
2017-12-06T05:27:34.144Z,1018.77
2017-12-06T05:28:35.562Z,1018.76
2017-12-06T05:29:36.967Z,1018.76
2017-12-06T05:30:38.376Z,1018.69
2017-12-06T05:31:39.791Z,1018.68
2017-12-06T05:32:41.200Z,1018.72
2017-12-06T05:33:42.608Z,1018.71
2017-12-06T05:34:44.021Z,1018.66
2017-12-06T05:35:45.461Z,1018.71
2017-12-06T05:36:46.842Z,1018.70
2017-12-06T05:37:48.252Z,1018.69
2017-12-06T05:38:49.669Z,1018.67
2017-12-06T05:39:51.080Z,1018.68
2017-12-06T05:40:52.501Z,1018.72
2017-12-06T05:41:53.911Z,1018.73
2017-12-06T05:42:55.321Z,1018.71
2017-12-06T05:43:56.729Z,1018.71
2017-12-06T05:44:58.149Z,1018.70
2017-12-06T05:45:59.560Z,1018.68
2017-12-06T05:47:00.970Z,1018.69
2017-12-06T05:48:02.377Z,1018.62
2017-12-06T05:49:03.797Z,1018.61
2017-12-06T05:50:05.205Z,1018.60
2017-12-06T05:51:06.619Z,1018.58
2017-12-06T05:52:08.036Z,1018.62
2017-12-06T05:53:09.451Z,1018.62
2017-12-06T05:54:10.860Z,1018.61
2017-12-06T05:55:12.271Z,1018.65
2017-12-06T05:56:13.683Z,1018.62
2017-12-06T05:57:15.101Z,1018.60
2017-12-06T05:58:16.508Z,1018.58
2017-12-06T05:59:17.920Z,1018.59
2017-12-06T06:00:19.336Z,1018.61
2017-12-06T06:01:20.754Z,1018.58
2017-12-06T06:02:22.163Z,1018.55
2017-12-06T06:03:23.580Z,1018.57
2017-12-06T06:04:24.990Z,1018.59
2017-12-06T06:05:26.399Z,1018.54
2017-12-06T06:06:27.811Z,1018.56
2017-12-06T06:07:29.226Z,1018.55
2017-12-06T06:08:30.655Z,1018.55
2017-12-06T06:09:32.061Z,1018.56
2017-12-06T06:10:33.472Z,1018.53
2017-12-06T06:11:34.874Z,1018.50
2017-12-06T06:12:36.307Z,1018.54
2017-12-06T06:13:37.724Z,1018.52
2017-12-06T06:14:39.137Z,1018.53
2017-12-06T06:15:40.548Z,1018.51
2017-12-06T06:16:41.967Z,1018.50
2017-12-06T06:17:43.369Z,1018.52
2017-12-06T06:18:44.776Z,1018.51
2017-12-06T06:19:46.184Z,1018.48
2017-12-06T06:20:47.613Z,1018.49
2017-12-06T06:21:49.021Z,1018.45
2017-12-06T06:22:50.420Z,1018.48
2017-12-06T06:23:51.844Z,1018.44
2017-12-06T06:24:53.258Z,1018.49
2017-12-06T06:25:54.671Z,1018.43
2017-12-06T06:26:56.079Z,1018.43
2017-12-06T06:27:57.498Z,1018.44
2017-12-06T06:28:58.907Z,1018.42
2017-12-06T06:30:00.323Z,1018.44
2017-12-06T06:31:01.742Z,1018.39
2017-12-06T06:32:04.034Z,1018.38
2017-12-06T06:33:05.447Z,1018.37
2017-12-06T06:34:06.862Z,1018.43
2017-12-06T06:35:08.274Z,1018.42
2017-12-06T06:36:09.682Z,1018.42
2017-12-06T06:37:11.102Z,1018.41
2017-12-06T06:38:12.513Z,1018.45
2017-12-06T06:39:13.924Z,1018.38
2017-12-06T06:40:15.341Z,1018.38
2017-12-06T06:41:16.743Z,1018.35
2017-12-06T06:42:18.154Z,1018.39
2017-12-06T06:43:19.569Z,1018.37
2017-12-06T06:44:20.990Z,1018.36
2017-12-06T06:45:22.444Z,1018.38
2017-12-06T06:46:23.808Z,1018.49
2017-12-06T06:47:25.220Z,1018.42
2017-12-06T06:48:26.739Z,1018.47
2017-12-06T06:49:28.159Z,1018.49
2017-12-06T06:50:29.600Z,1018.46
2017-12-06T06:51:30.975Z,1018.51
2017-12-06T06:52:32.387Z,1018.46
2017-12-06T06:53:33.810Z,1018.46
2017-12-06T06:54:35.270Z,1018.47
2017-12-06T06:55:36.636Z,1018.47
2017-12-06T06:56:38.047Z,1018.52
2017-12-06T06:57:39.464Z,1018.49
2017-12-06T06:58:40.868Z,1018.47
2017-12-06T06:59:42.289Z,1018.43
2017-12-06T07:00:43.704Z,1018.53
2017-12-06T07:01:45.122Z,1018.51
2017-12-06T07:02:46.528Z,1018.54
2017-12-06T07:03:47.946Z,1018.52
2017-12-06T07:04:49.351Z,1018.54
2017-12-06T07:05:50.760Z,1018.61
2017-12-06T07:06:52.170Z,1018.59
2017-12-06T07:07:53.597Z,1018.61
2017-12-06T07:08:54.996Z,1018.60
2017-12-06T07:09:56.409Z,1018.64
2017-12-06T07:10:57.821Z,1018.57
2017-12-06T07:11:59.235Z,1018.63
2017-12-06T07:13:00.642Z,1018.62
2017-12-06T07:14:02.070Z,1018.64
2017-12-06T07:15:03.483Z,1018.61
2017-12-06T07:16:04.897Z,1018.69
2017-12-06T07:17:06.312Z,1018.52
2017-12-06T07:18:07.728Z,1018.62
2017-12-06T07:19:09.152Z,1018.64
2017-12-06T07:20:10.567Z,1018.60
2017-12-06T07:21:11.976Z,1018.63
2017-12-06T07:22:13.378Z,1018.57
2017-12-06T07:23:14.798Z,1018.59
2017-12-06T07:24:16.211Z,1018.60
2017-12-06T07:25:17.625Z,1018.58
2017-12-06T07:26:19.030Z,1018.57
2017-12-06T07:27:20.439Z,1018.58
2017-12-06T07:28:21.849Z,1018.57
2017-12-06T07:29:23.258Z,1018.59
2017-12-06T07:30:24.674Z,1018.57
2017-12-06T07:31:26.083Z,1018.63
2017-12-06T07:32:27.490Z,1018.63
2017-12-06T07:33:28.914Z,1018.68
2017-12-06T07:34:30.324Z,1018.65
2017-12-06T07:35:31.737Z,1018.68
2017-12-06T07:36:33.146Z,1018.66
2017-12-06T07:37:35.471Z,1018.69
2017-12-06T07:38:36.887Z,1018.64
2017-12-06T07:39:38.302Z,1018.64
2017-12-06T07:40:39.714Z,1018.67
2017-12-06T07:41:41.118Z,1018.65
2017-12-06T07:42:42.537Z,1018.62
2017-12-06T07:43:43.948Z,1018.63
2017-12-06T07:44:45.370Z,1018.61
2017-12-06T07:45:46.778Z,1018.61
2017-12-06T07:46:48.199Z,1018.59
2017-12-06T07:47:49.613Z,1018.59
2017-12-06T07:48:51.032Z,1018.58
2017-12-06T07:49:52.443Z,1018.60
2017-12-06T07:50:53.925Z,1018.64
2017-12-06T07:51:55.276Z,1018.60
2017-12-06T07:52:56.690Z,1018.62
2017-12-06T07:53:58.103Z,1018.70
2017-12-06T07:54:59.521Z,1018.63
2017-12-06T07:56:00.928Z,1018.67
2017-12-06T07:57:02.340Z,1018.66
2017-12-06T07:58:03.784Z,1018.61
2017-12-06T07:59:05.195Z,1018.61
2017-12-06T08:00:06.620Z,1018.58
2017-12-06T08:01:08.032Z,1018.59
2017-12-06T08:02:09.440Z,1018.59
2017-12-06T08:03:10.863Z,1018.58
2017-12-06T08:04:12.275Z,1018.56
2017-12-06T08:05:13.684Z,1018.62
2017-12-06T08:06:15.106Z,1018.69
2017-12-06T08:07:16.514Z,1018.63
2017-12-06T08:08:17.924Z,1018.64
2017-12-06T08:09:19.339Z,1018.66
2017-12-06T08:10:20.756Z,1018.66
2017-12-06T08:11:22.160Z,1018.69
2017-12-06T08:12:23.578Z,1018.67
2017-12-06T08:13:24.986Z,1018.70
2017-12-06T08:14:26.390Z,1018.68
2017-12-06T08:15:27.800Z,1018.72
2017-12-06T08:16:29.225Z,1018.67
2017-12-06T08:17:30.631Z,1018.67
2017-12-06T08:18:32.052Z,1018.67
2017-12-06T08:19:33.471Z,1018.69
2017-12-06T08:20:34.889Z,1018.68
2017-12-06T08:21:36.299Z,1018.70
2017-12-06T08:22:37.724Z,1018.59
2017-12-06T08:23:39.136Z,1018.61
2017-12-06T08:24:40.593Z,1018.65
2017-12-06T08:25:41.980Z,1018.73
2017-12-06T08:26:43.395Z,1018.69
2017-12-06T08:27:44.825Z,1018.68
2017-12-06T08:28:46.236Z,1018.76
2017-12-06T08:29:47.648Z,1018.72
2017-12-06T08:30:49.064Z,1018.75
2017-12-06T08:31:50.481Z,1018.70
2017-12-06T08:32:51.974Z,1018.74
2017-12-06T08:33:53.383Z,1018.73
2017-12-06T08:34:54.792Z,1018.70
2017-12-06T08:35:56.210Z,1018.71
2017-12-06T08:36:57.613Z,1018.78
2017-12-06T08:37:59.039Z,1018.79
2017-12-06T08:39:00.534Z,1018.76
2017-12-06T08:40:01.950Z,1018.71
2017-12-06T08:41:03.360Z,1018.78
2017-12-06T08:42:04.769Z,1018.79
2017-12-06T08:43:06.177Z,1018.87
2017-12-06T08:44:07.590Z,1018.87
2017-12-06T08:45:09.001Z,1018.81
2017-12-06T08:46:10.415Z,1018.84
2017-12-06T08:47:11.831Z,1018.86
2017-12-06T08:48:13.242Z,1018.86
2017-12-06T08:49:14.658Z,1018.81
2017-12-06T08:50:16.068Z,1018.83
2017-12-06T08:51:17.484Z,1018.81
2017-12-06T08:52:18.884Z,1018.83
2017-12-06T08:53:20.298Z,1018.83
2017-12-06T08:54:21.711Z,1018.81
2017-12-06T08:55:23.132Z,1018.83
2017-12-06T08:56:24.542Z,1018.83
2017-12-06T08:57:25.960Z,1018.85
2017-12-06T08:58:27.376Z,1018.82
2017-12-06T08:59:28.784Z,1018.90
2017-12-06T09:00:30.202Z,1018.91
2017-12-06T09:01:31.619Z,1018.89
2017-12-06T09:02:33.044Z,1018.91
2017-12-06T09:03:34.449Z,1018.87
2017-12-06T09:04:35.861Z,1018.98
2017-12-06T09:05:37.283Z,1018.92
2017-12-06T09:06:38.718Z,1018.97
2017-12-06T09:07:40.116Z,1018.94
2017-12-06T09:08:41.536Z,1018.93
2017-12-06T09:09:42.939Z,1018.99
2017-12-06T09:10:44.354Z,1018.99
2017-12-06T09:11:45.768Z,1019.02
2017-12-06T09:12:47.189Z,1018.94
2017-12-06T09:13:48.594Z,1019.01
2017-12-06T09:14:50.005Z,1018.96
2017-12-06T09:15:51.419Z,1018.87
2017-12-06T09:16:52.834Z,1019.00
2017-12-06T09:17:54.253Z,1018.96
2017-12-06T09:18:55.695Z,1018.96
2017-12-06T09:19:57.107Z,1018.97
2017-12-06T09:20:58.519Z,1018.99
2017-12-06T09:21:59.927Z,1018.92
2017-12-06T09:23:01.341Z,1019.03
2017-12-06T09:24:02.756Z,1018.99
2017-12-06T09:25:04.171Z,1018.96
2017-12-06T09:26:05.591Z,1018.96
2017-12-06T09:27:07.000Z,1018.96
2017-12-06T09:28:08.403Z,1018.98
2017-12-06T09:29:09.827Z,1019.04
2017-12-06T09:30:11.241Z,1019.04
2017-12-06T09:31:12.650Z,1018.99
2017-12-06T09:32:14.071Z,1019.04
2017-12-06T09:33:15.482Z,1018.96
2017-12-06T09:34:16.896Z,1018.92
2017-12-06T09:35:18.305Z,1019.02
2017-12-06T09:36:19.725Z,1019.03
2017-12-06T09:37:21.141Z,1018.99
2017-12-06T09:38:22.562Z,1018.93
2017-12-06T09:39:23.984Z,1019.04
2017-12-06T09:40:25.409Z,1019.04
2017-12-06T09:41:26.828Z,1019.02
2017-12-06T09:42:28.241Z,1019.00
2017-12-06T09:43:29.666Z,1019.00
2017-12-06T09:44:31.078Z,1019.00
2017-12-06T09:45:32.499Z,1018.99
2017-12-06T09:46:33.917Z,1019.03
2017-12-06T09:47:35.340Z,1018.99
2017-12-06T09:48:36.760Z,1018.99
2017-12-06T09:49:38.182Z,1018.95
2017-12-06T09:50:39.594Z,1018.90
2017-12-06T09:51:41.000Z,1018.93
2017-12-06T09:52:42.418Z,1018.89
2017-12-06T09:53:43.843Z,1018.84
2017-12-06T09:54:45.258Z,1018.88
2017-12-06T09:55:46.672Z,1018.92
2017-12-06T09:56:48.095Z,1018.90
2017-12-06T09:57:49.505Z,1018.94
2017-12-06T09:58:50.928Z,1018.86
2017-12-06T09:59:52.345Z,1018.93
2017-12-06T10:00:53.756Z,1018.88
2017-12-06T10:01:55.173Z,1018.83
2017-12-06T10:02:56.628Z,1018.85
2017-12-06T10:03:57.992Z,1018.90
2017-12-06T10:04:59.413Z,1018.86
2017-12-06T10:06:00.831Z,1018.88
2017-12-06T10:07:02.244Z,1018.88
2017-12-06T10:08:03.667Z,1018.90
2017-12-06T10:09:05.083Z,1018.88
2017-12-06T10:10:06.504Z,1018.88
2017-12-06T10:11:07.950Z,1018.88
2017-12-06T10:12:09.360Z,1018.84
2017-12-06T10:13:10.772Z,1018.90
2017-12-06T10:14:12.195Z,1018.79
2017-12-06T10:15:13.656Z,1018.85
2017-12-06T10:16:15.073Z,1018.87
2017-12-06T10:17:16.490Z,1018.86
2017-12-06T10:18:17.905Z,1018.80
2017-12-06T10:19:19.322Z,1018.82
2017-12-06T10:20:20.737Z,1018.87
2017-12-06T10:21:22.147Z,1018.83
2017-12-06T10:22:23.573Z,1018.83
2017-12-06T10:23:24.975Z,1018.82
2017-12-06T10:24:26.393Z,1018.80
2017-12-06T10:25:27.817Z,1018.81
2017-12-06T10:26:29.229Z,1018.75
2017-12-06T10:27:30.648Z,1018.78
2017-12-06T10:28:32.066Z,1018.78
2017-12-06T10:29:33.479Z,1018.76
2017-12-06T10:30:34.896Z,1018.73
2017-12-06T10:31:36.300Z,1018.74
2017-12-06T10:32:37.715Z,1018.71
2017-12-06T10:33:39.138Z,1018.72
2017-12-06T10:34:40.563Z,1018.69
2017-12-06T10:35:41.968Z,1018.72
2017-12-06T10:36:43.380Z,1018.70
2017-12-06T10:37:44.813Z,1018.68
2017-12-06T10:38:46.232Z,1018.71
2017-12-06T10:39:47.652Z,1018.68
2017-12-06T10:40:49.075Z,1018.70
2017-12-06T10:41:50.484Z,1018.71
2017-12-06T10:42:51.899Z,1018.66
2017-12-06T10:43:53.314Z,1018.69
2017-12-06T10:44:54.724Z,1018.59
2017-12-06T10:45:56.144Z,1018.65
2017-12-06T10:46:57.564Z,1018.68
2017-12-06T10:47:58.970Z,1018.68
2017-12-06T10:49:00.392Z,1018.68
2017-12-06T10:50:01.816Z,1018.64
2017-12-06T10:51:03.230Z,1018.64
2017-12-06T10:52:04.645Z,1018.62
2017-12-06T10:53:06.061Z,1018.61
2017-12-06T10:54:07.477Z,1018.55
2017-12-06T10:55:08.886Z,1018.57
2017-12-06T10:56:10.302Z,1018.56
2017-12-06T10:57:11.716Z,1018.51
2017-12-06T10:58:13.131Z,1018.53
2017-12-06T10:59:14.555Z,1018.45
2017-12-06T11:00:15.962Z,1018.52
2017-12-06T11:01:17.386Z,1018.47
2017-12-06T11:02:18.790Z,1018.53
2017-12-06T11:03:20.201Z,1018.53
2017-12-06T11:04:21.624Z,1018.49
2017-12-06T11:05:23.048Z,1018.51
2017-12-06T11:06:24.469Z,1018.45
2017-12-06T11:07:25.879Z,1018.41
2017-12-06T11:08:27.352Z,1018.47
2017-12-06T11:09:28.723Z,1018.42
2017-12-06T11:10:30.139Z,1018.44
2017-12-06T11:11:31.554Z,1018.42
2017-12-06T11:12:32.973Z,1018.49
2017-12-06T11:13:34.396Z,1018.45
2017-12-06T11:14:35.807Z,1018.44
2017-12-06T11:15:37.225Z,1018.46
2017-12-06T11:16:38.630Z,1018.43
2017-12-06T11:17:40.056Z,1018.41
2017-12-06T11:18:41.464Z,1018.37
2017-12-06T11:19:42.871Z,1018.42
2017-12-06T11:20:44.290Z,1018.40
2017-12-06T11:21:45.706Z,1018.34
2017-12-06T11:22:47.129Z,1018.34
2017-12-06T11:23:48.533Z,1018.37
2017-12-06T11:24:49.959Z,1018.32
2017-12-06T11:25:51.380Z,1018.30
2017-12-06T11:26:52.801Z,1018.33
2017-12-06T11:27:54.216Z,1018.33
2017-12-06T11:28:56.131Z,1018.29
2017-12-06T11:29:57.550Z,1018.29
2017-12-06T11:30:58.984Z,1018.32
2017-12-06T11:32:00.399Z,1018.28
2017-12-06T11:33:01.815Z,1018.28
2017-12-06T11:34:03.235Z,1018.30
2017-12-06T11:35:04.729Z,1018.28
2017-12-06T11:36:06.136Z,1018.29
2017-12-06T11:37:07.549Z,1018.20
2017-12-06T11:38:08.972Z,1018.22
2017-12-06T11:39:10.382Z,1018.25
2017-12-06T11:40:11.803Z,1018.23
2017-12-06T11:41:13.228Z,1018.23
2017-12-06T11:42:14.632Z,1018.20
2017-12-06T11:43:16.050Z,1018.19
2017-12-06T11:44:17.463Z,1018.23
2017-12-06T11:45:18.876Z,1018.24
2017-12-06T11:46:20.298Z,1018.22
2017-12-06T11:47:21.712Z,1018.22
2017-12-06T11:48:23.123Z,1018.27
2017-12-06T11:49:24.548Z,1018.29
2017-12-06T11:50:25.956Z,1018.24
2017-12-06T11:51:27.371Z,1018.20
2017-12-06T11:52:28.793Z,1018.27
2017-12-06T11:53:30.206Z,1018.25
2017-12-06T11:54:31.636Z,1018.20
2017-12-06T11:55:33.054Z,1018.23
2017-12-06T11:56:34.471Z,1018.21
2017-12-06T11:57:35.893Z,1018.20
2017-12-06T11:58:37.312Z,1018.22
2017-12-06T11:59:38.734Z,1018.20
2017-12-06T12:00:40.152Z,1018.22
2017-12-06T12:01:41.566Z,1018.24
2017-12-06T12:02:42.981Z,1018.18
2017-12-06T12:03:44.412Z,1018.16
2017-12-06T12:04:45.828Z,1018.18
2017-12-06T12:05:47.239Z,1018.22
2017-12-06T12:06:48.664Z,1018.15
2017-12-06T12:07:50.118Z,1018.19
2017-12-06T12:08:51.496Z,1018.16
2017-12-06T12:09:52.914Z,1018.13
2017-12-06T12:10:54.324Z,1018.16
2017-12-06T12:11:55.753Z,1018.11
2017-12-06T12:12:57.162Z,1018.16
2017-12-06T12:13:58.580Z,1018.11
2017-12-06T12:15:00.001Z,1018.12
2017-12-06T12:16:01.418Z,1018.08
2017-12-06T12:17:02.835Z,1018.09
2017-12-06T12:18:04.254Z,1018.03
2017-12-06T12:19:05.674Z,1018.01
2017-12-06T12:20:07.102Z,1018.00
2017-12-06T12:21:08.514Z,1018.03
2017-12-06T12:22:09.930Z,1018.00